createdAt,value
2019-04-20T00:01:58.172Z,3.40
2019-04-20T00:04:01.144Z,3.00
2019-04-20T00:06:05.166Z,2.93
2019-04-20T00:08:14.993Z,3.70
2019-04-20T00:10:18.374Z,3.20
2019-04-20T00:12:33.621Z,3.27
2019-04-20T00:14:29.605Z,3.80
2019-04-20T00:16:31.606Z,3.13
2019-04-20T00:18:43.171Z,3.53
2019-04-20T00:20:43.847Z,3.30
2019-04-20T00:22:54.076Z,3.30
2019-04-20T00:25:12.629Z,2.83
2019-04-20T00:27:38.648Z,2.80
2019-04-20T00:29:35.284Z,3.20
2019-04-20T00:31:41.979Z,3.63
2019-04-20T00:33:43.521Z,3.40
2019-04-20T00:35:35.988Z,3.47
2019-04-20T00:37:40.225Z,3.50
2019-04-20T00:39:44.788Z,3.40
2019-04-20T00:41:55.003Z,3.00
2019-04-20T00:43:57.743Z,3.43
2019-04-20T00:46:06.658Z,3.80
2019-04-20T00:48:18.429Z,3.70
2019-04-20T00:50:28.452Z,3.33
2019-04-20T00:52:31.287Z,3.10
2019-04-20T00:54:22.256Z,3.40
2019-04-20T00:56:26.515Z,3.23
2019-04-20T00:58:46.291Z,3.37
2019-04-20T01:00:59.923Z,3.67
2019-04-20T01:02:50.723Z,3.87
2019-04-20T01:05:04.186Z,3.70
2019-04-20T01:07:11.407Z,4.13
2019-04-20T01:09:05.399Z,3.90
2019-04-20T01:11:10.252Z,4.07
2019-04-20T01:13:19.794Z,4.27
2019-04-20T01:15:28.095Z,4.00
2019-04-20T01:17:25.426Z,4.30
2019-04-20T01:19:29.323Z,4.47
2019-04-20T01:21:33.891Z,4.07
2019-04-20T01:23:46.205Z,4.03
2019-04-20T01:25:48.421Z,3.80
2019-04-20T01:28:08.088Z,4.00
2019-04-20T01:30:05.838Z,3.73
2019-04-20T01:32:14.214Z,4.37
2019-04-20T01:34:23.736Z,4.60
2019-04-20T01:36:33.584Z,3.97
2019-04-20T01:38:34.688Z,4.37
2019-04-20T01:40:25.398Z,4.20
2019-04-20T01:42:30.042Z,3.97
2019-04-20T01:44:41.301Z,4.60
2019-04-20T01:46:47.742Z,5.00
2019-04-20T01:48:45.082Z,3.87
2019-04-20T01:50:59.664Z,3.97
2019-04-20T01:53:08.354Z,4.23
2019-04-20T01:55:27.585Z,4.20
2019-04-20T01:57:33.076Z,4.07
2019-04-20T01:59:46.617Z,4.00
2019-04-20T02:02:04.051Z,4.37
2019-04-20T02:04:06.426Z,3.83
2019-04-20T02:06:18.888Z,3.83
2019-04-20T02:08:24.953Z,4.50
2019-04-20T02:10:38.888Z,3.87
2019-04-20T02:12:37.211Z,4.20
2019-04-20T02:14:46.253Z,4.20
2019-04-20T02:16:49.601Z,4.60
2019-04-20T02:19:07.408Z,4.10
2019-04-20T02:21:15.209Z,4.00
2019-04-20T02:23:14.540Z,4.23
2019-04-20T02:25:08.043Z,4.37
2019-04-20T02:27:12.629Z,4.03
2019-04-20T02:29:39.942Z,3.97
2019-04-20T02:32:06.627Z,3.87
2019-04-20T02:34:17.865Z,4.40
2019-04-20T02:36:38.130Z,4.27
2019-04-20T02:38:53.914Z,3.77
2019-04-20T02:40:46.736Z,3.73
2019-04-20T02:45:05.110Z,4.57
2019-04-20T02:47:04.692Z,4.70
2019-04-20T02:49:10.546Z,4.33
2019-04-20T02:51:09.046Z,4.37
2019-04-20T02:53:20.449Z,4.55
2019-04-20T02:55:41.742Z,4.75
2019-04-20T03:01:27.794Z,4.20
2019-04-20T03:03:25.192Z,4.50
2019-04-20T03:05:33.169Z,4.00
2019-04-20T03:07:40.987Z,4.55
2019-04-20T03:09:52.624Z,4.35
2019-04-20T03:12:05.011Z,4.47
2019-04-20T03:14:05.094Z,4.72
2019-04-20T03:16:11.231Z,4.97
2019-04-20T03:18:17.909Z,5.00
2019-04-20T03:20:22.918Z,4.70
2019-04-20T03:22:46.074Z,5.33
2019-04-20T03:24:40.450Z,4.53
2019-04-20T03:26:41.969Z,4.80
2019-04-20T03:28:56.757Z,4.70
2019-04-20T03:31:33.413Z,4.78
2019-04-20T03:33:36.571Z,4.58
2019-04-20T03:35:25.073Z,4.70
2019-04-20T03:37:33.130Z,4.55
2019-04-20T03:39:28.450Z,5.53
2019-04-20T03:41:24.431Z,4.75
2019-04-20T03:43:22.568Z,4.62
2019-04-20T03:45:31.430Z,5.22
2019-04-20T03:47:43.732Z,4.95
2019-04-20T03:50:03.354Z,4.80
2019-04-20T03:52:02.595Z,5.03
2019-04-20T03:54:19.951Z,5.30
2019-04-20T03:56:42.335Z,4.85
2019-04-20T03:58:45.942Z,5.15
2019-04-20T04:01:12.526Z,5.12
2019-04-20T04:03:43.265Z,5.40
2019-04-20T04:05:36.885Z,5.00
2019-04-20T04:07:36.471Z,5.45
2019-04-20T04:09:47.003Z,4.80
2019-04-20T04:11:54.834Z,4.53
2019-04-20T04:13:45.908Z,5.17
2019-04-20T04:15:57.474Z,4.20
2019-04-20T04:18:04.088Z,4.62
2019-04-20T04:20:08.548Z,4.12
2019-04-20T04:22:18.094Z,5.08
2019-04-20T04:24:26.055Z,4.72
2019-04-20T04:26:34.150Z,4.50
2019-04-20T04:28:41.003Z,4.83
2019-04-20T04:30:49.537Z,6.70
2019-04-20T04:33:20.078Z,5.50
2019-04-20T04:35:00.123Z,4.70
2019-04-20T04:37:15.215Z,5.30
2019-04-20T04:39:19.234Z,4.67
2019-04-20T04:41:24.240Z,5.50
2019-04-20T04:43:25.712Z,5.30
2019-04-20T04:45:15.916Z,6.10
2019-04-20T04:47:18.215Z,5.83
2019-04-20T04:49:28.469Z,5.42
2019-04-20T04:51:40.297Z,6.37
2019-04-20T04:53:44.181Z,6.47
2019-04-20T04:55:50.075Z,5.25
2019-04-20T04:57:45.392Z,5.75
2019-04-20T04:59:50.836Z,4.97
2019-04-20T05:01:57.087Z,5.60
2019-04-20T05:04:23.267Z,6.17
2019-04-20T05:06:24.782Z,8.78
2019-04-20T05:08:27.341Z,8.55
2019-04-20T05:10:24.808Z,7.17
2019-04-20T05:12:33.056Z,7.00
2019-04-20T05:14:47.165Z,8.60
2019-04-20T05:16:55.302Z,8.50
2019-04-20T05:19:11.976Z,9.68
2019-04-20T05:21:15.349Z,9.63
2019-04-20T05:23:26.992Z,8.35
2019-04-20T05:25:36.675Z,10.18
2019-04-20T05:27:56.032Z,11.53
2019-04-20T05:29:42.816Z,8.58
2019-04-20T05:31:53.478Z,7.42
2019-04-20T05:34:14.464Z,5.67
2019-04-20T05:36:18.582Z,5.40
2019-04-20T05:38:32.680Z,5.70
2019-04-20T05:40:35.494Z,6.15
2019-04-20T05:42:36.848Z,5.08
2019-04-20T05:44:49.912Z,5.60
2019-04-20T05:46:59.459Z,5.17
2019-04-20T05:49:00.480Z,5.40
2019-04-20T05:51:01.516Z,5.60
2019-04-20T05:53:16.134Z,5.03
2019-04-20T05:55:16.244Z,4.90
2019-04-20T05:57:25.083Z,4.60
2019-04-20T05:59:27.082Z,5.17
2019-04-20T06:01:34.493Z,5.03
2019-04-20T06:03:38.235Z,4.70
2019-04-20T06:05:55.198Z,5.37
2019-04-20T06:07:49.111Z,4.95
2019-04-20T06:09:59.971Z,5.03
2019-04-20T06:14:07.115Z,4.90
2019-04-20T06:16:20.210Z,5.05
2019-04-20T06:18:28.402Z,5.83
2019-04-20T06:22:51.355Z,5.35
2019-04-20T06:25:23.984Z,4.20
2019-04-20T06:27:10.353Z,5.23
2019-04-20T06:29:16.433Z,4.50
2019-04-20T06:31:26.505Z,4.47
2019-04-20T06:34:16.291Z,5.00
2019-04-20T06:38:35.328Z,4.93
2019-04-20T06:40:36.391Z,4.90
2019-04-20T06:42:25.867Z,4.47
2019-04-20T06:44:34.096Z,4.80
2019-04-20T06:46:43.158Z,5.20
2019-04-20T06:48:46.110Z,4.77
2019-04-20T06:50:52.715Z,4.37
2019-04-20T06:53:16.418Z,4.63
2019-04-20T06:55:14.292Z,5.40
2019-04-20T06:57:29.890Z,5.80
2019-04-20T06:59:42.300Z,4.50
2019-04-20T07:01:46.752Z,4.50
2019-04-20T07:03:56.789Z,4.97
2019-04-20T07:05:49.230Z,5.70
2019-04-20T07:07:54.681Z,5.20
2019-04-20T07:10:09.831Z,5.07
2019-04-20T07:12:03.003Z,5.37
2019-04-20T07:13:58.768Z,4.67
2019-04-20T07:16:37.935Z,4.97
2019-04-20T07:18:46.366Z,5.47
2019-04-20T07:20:59.276Z,5.33
2019-04-20T07:23:11.324Z,5.87
2019-04-20T07:25:06.381Z,6.10
2019-04-20T07:27:12.215Z,5.27
2019-04-20T07:29:23.753Z,5.43
2019-04-20T07:31:24.793Z,5.17
2019-04-20T07:33:33.455Z,4.80
2019-04-20T07:35:38.167Z,5.13
2019-04-20T07:38:10.056Z,6.13
2019-04-20T07:39:52.405Z,5.23
2019-04-20T07:41:54.664Z,5.27
2019-04-20T07:44:03.422Z,4.97
2019-04-20T07:46:09.330Z,4.90
2019-04-20T07:48:15.243Z,5.37
2019-04-20T07:50:12.061Z,4.90
2019-04-20T07:51:59.629Z,5.47
2019-04-20T07:54:31.635Z,5.07
2019-04-20T07:56:30.529Z,4.93
2019-04-20T07:58:25.155Z,4.87
2019-04-20T08:00:48.445Z,4.60
2019-04-20T08:03:12.851Z,5.00
2019-04-20T08:05:15.622Z,4.90
2019-04-20T08:07:09.541Z,4.60
2019-04-20T08:09:23.172Z,4.87
2019-04-20T08:11:46.929Z,4.30
2019-04-20T08:13:50.972Z,5.40
2019-04-20T08:18:02.404Z,4.80
2019-04-20T08:19:57.898Z,4.70
2019-04-20T08:22:14.093Z,4.60
2019-04-20T08:24:07.448Z,4.30
2019-04-20T08:26:06.569Z,4.53
2019-04-20T08:28:27.366Z,4.83
2019-04-20T08:30:41.309Z,4.63
2019-04-20T08:32:59.535Z,4.90
2019-04-20T08:35:15.357Z,4.40
2019-04-20T08:37:11.437Z,4.20
2019-04-20T08:39:38.034Z,4.37
2019-04-20T08:41:21.452Z,5.37
2019-04-20T08:43:42.651Z,4.47
2019-04-20T08:45:43.006Z,4.90
2019-04-20T08:47:51.863Z,4.73
2019-04-20T08:50:19.810Z,4.30
2019-04-20T08:52:44.589Z,4.60
2019-04-20T08:54:21.729Z,4.60
2019-04-20T08:56:21.575Z,4.57
2019-04-20T08:58:16.402Z,5.57
2019-04-20T09:00:29.299Z,4.57
2019-04-20T09:02:25.927Z,8.47
2019-04-20T09:04:37.390Z,5.63
2019-04-20T09:06:50.076Z,5.93
2019-04-20T09:08:50.332Z,5.10
2019-04-20T09:11:05.906Z,4.27
2019-04-20T09:13:06.039Z,4.90
2019-04-20T09:14:59.370Z,4.53
2019-04-20T09:17:12.291Z,6.67
2019-04-20T09:19:24.800Z,4.47
2019-04-20T09:21:29.743Z,4.43
2019-04-20T09:23:40.390Z,9.07
2019-04-20T09:26:02.409Z,5.43
2019-04-20T09:27:47.627Z,4.27
2019-04-20T09:30:04.321Z,5.20
2019-04-20T09:32:17.042Z,3.90
2019-04-20T09:34:37.105Z,4.30
2019-04-20T09:36:40.822Z,4.50
2019-04-20T09:39:00.027Z,4.27
2019-04-20T09:41:18.503Z,4.10
2019-04-20T09:43:02.312Z,3.90
2019-04-20T09:45:21.370Z,4.57
2019-04-20T09:47:25.875Z,4.47
2019-04-20T09:49:36.204Z,6.03
2019-04-20T09:51:46.164Z,7.30
2019-04-20T09:53:43.139Z,3.95
2019-04-20T09:55:59.328Z,4.13
2019-04-20T09:57:57.643Z,4.80
2019-04-20T10:00:10.392Z,4.27
2019-04-20T10:02:01.916Z,4.63
2019-04-20T10:03:59.283Z,4.57
2019-04-20T10:06:03.461Z,4.47
2019-04-20T10:08:09.945Z,5.17
2019-04-20T10:10:22.661Z,4.23
2019-04-20T10:12:19.767Z,4.53
2019-04-20T10:14:24.729Z,4.30
2019-04-20T10:16:29.429Z,5.13
2019-04-20T10:18:39.359Z,4.17
2019-04-20T10:20:41.497Z,4.40
2019-04-20T10:22:44.823Z,5.20
2019-04-20T10:24:50.514Z,4.03
2019-04-20T10:26:54.622Z,4.33
2019-04-20T10:28:59.403Z,4.53
2019-04-20T10:31:04.348Z,4.00
2019-04-20T10:33:09.776Z,4.33
2019-04-20T10:35:16.840Z,4.30
2019-04-20T10:37:21.751Z,5.00
2019-04-20T10:39:26.936Z,4.13
2019-04-20T10:41:40.926Z,4.07
2019-04-20T10:43:36.453Z,4.40
2019-04-20T10:45:41.219Z,4.77
2019-04-20T10:47:45.301Z,4.30
2019-04-20T10:49:49.377Z,4.40
2019-04-20T10:51:53.583Z,4.40
2019-04-20T10:53:58.304Z,4.50
2019-04-20T10:56:03.464Z,4.60
2019-04-20T10:58:07.324Z,4.60
2019-04-20T11:00:13.550Z,4.27
2019-04-20T11:02:17.476Z,4.70
2019-04-20T11:04:21.277Z,4.50
2019-04-20T11:06:25.193Z,5.27
2019-04-20T11:08:28.787Z,4.30
2019-04-20T11:10:49.185Z,4.70
2019-04-20T11:12:38.216Z,4.77
2019-04-20T11:14:44.282Z,4.20
2019-04-20T11:16:48.543Z,4.13
2019-04-20T11:18:53.500Z,4.77
2019-04-20T11:20:57.536Z,4.40
2019-04-20T11:23:02.358Z,4.47
2019-04-20T11:25:08.296Z,4.47
2019-04-20T11:27:12.215Z,4.77
2019-04-20T11:29:16.166Z,4.07
2019-04-20T11:31:20.055Z,4.87
2019-04-20T11:33:24.544Z,5.23
2019-04-20T11:35:34.390Z,4.90
2019-04-20T11:37:33.405Z,4.83
2019-04-20T11:39:37.384Z,4.50
2019-04-20T11:41:41.539Z,4.03
2019-04-20T11:43:45.717Z,4.70
2019-04-20T11:45:51.015Z,4.87
2019-04-20T11:47:55.743Z,4.53
2019-04-20T11:49:59.804Z,5.00
2019-04-20T11:52:03.624Z,4.83
2019-04-20T11:54:08.282Z,4.80
2019-04-20T11:56:17.928Z,4.90
2019-04-20T11:58:17.567Z,4.83
2019-04-20T12:00:25.734Z,4.47
2019-04-20T12:02:37.133Z,5.07
2019-04-20T12:04:49.390Z,5.13
2019-04-20T12:06:48.732Z,4.60
2019-04-20T12:08:52.744Z,5.83
2019-04-20T12:10:59.658Z,4.60
2019-04-20T12:13:01.877Z,4.73
2019-04-20T12:15:06.966Z,5.30
2019-04-20T12:17:11.491Z,4.77
2019-04-20T12:19:15.459Z,4.90
2019-04-20T12:21:19.348Z,4.53
2019-04-20T12:23:24.357Z,5.00
2019-04-20T12:25:29.141Z,5.57
2019-04-20T12:27:34.486Z,4.70
2019-04-20T12:29:38.714Z,5.37
2019-04-20T12:31:44.351Z,4.67
2019-04-20T12:33:48.387Z,4.73
2019-04-20T12:35:52.326Z,4.30
2019-04-20T12:37:56.932Z,4.93
2019-04-20T12:40:00.864Z,4.73
2019-04-20T12:42:08.095Z,4.63
2019-04-20T12:44:10.402Z,4.60
2019-04-20T12:46:17.067Z,4.53
2019-04-20T12:48:19.834Z,4.63
2019-04-20T12:50:24.055Z,5.10
2019-04-20T12:52:28.292Z,4.33
2019-04-20T12:54:32.412Z,5.33
2019-04-20T12:56:36.186Z,4.70
2019-04-20T12:58:43.331Z,4.30
2019-04-20T13:00:50.893Z,4.70
2019-04-20T13:02:55.898Z,4.50
2019-04-20T13:04:59.617Z,5.13
2019-04-20T13:07:04.000Z,4.20
2019-04-20T13:09:12.589Z,4.50
2019-04-20T13:11:45.269Z,4.03
2019-04-20T13:13:48.375Z,3.90
2019-04-20T13:15:54.321Z,4.30
2019-04-20T13:17:59.012Z,4.07
2019-04-20T13:20:03.719Z,4.40
2019-04-20T13:22:07.723Z,4.70
2019-04-20T13:24:11.652Z,4.77
2019-04-20T13:26:15.822Z,4.60
2019-04-20T13:28:21.267Z,4.10
2019-04-20T13:30:25.879Z,4.27
2019-04-20T13:32:29.790Z,4.90
2019-04-20T13:34:33.999Z,4.00
2019-04-20T13:36:38.214Z,3.97
2019-04-20T13:38:42.162Z,4.50
2019-04-20T13:40:46.029Z,4.33
2019-04-20T13:42:49.903Z,4.40
2019-04-20T13:44:54.926Z,4.37
2019-04-20T13:46:58.819Z,3.70
2019-04-20T13:49:02.980Z,3.93
2019-04-20T13:51:07.857Z,4.10
2019-04-20T13:53:11.715Z,4.30
2019-04-20T13:55:16.912Z,4.30
2019-04-20T13:57:26.152Z,4.13
2019-04-20T13:59:35.073Z,4.53
2019-04-20T14:01:41.164Z,4.03
2019-04-20T14:03:44.976Z,3.80
2019-04-20T14:05:48.898Z,3.83
2019-04-20T14:07:53.512Z,4.43
2019-04-20T14:09:57.476Z,4.20
2019-04-20T14:12:15.131Z,4.00
2019-04-20T14:14:08.368Z,4.43
2019-04-20T14:16:14.254Z,3.90
2019-04-20T14:18:19.400Z,3.90
2019-04-20T14:20:24.350Z,4.40
2019-04-20T14:22:29.303Z,3.83
2019-04-20T14:24:33.233Z,4.33
2019-04-20T14:26:39.469Z,4.70
2019-04-20T14:28:43.019Z,4.47
2019-04-20T14:30:47.858Z,4.30
2019-04-20T14:32:52.611Z,4.30
2019-04-20T14:34:56.849Z,4.33
2019-04-20T14:37:00.549Z,3.93
2019-04-20T14:39:06.580Z,4.33
2019-04-20T14:41:10.634Z,3.80
2019-04-20T14:43:17.392Z,4.00
2019-04-20T14:45:22.792Z,3.80
2019-04-20T14:47:27.978Z,4.00
2019-04-20T14:49:32.623Z,3.97
2019-04-20T14:51:37.494Z,3.93
2019-04-20T14:53:41.428Z,4.33
2019-04-20T14:55:45.334Z,4.13
2019-04-20T14:57:49.809Z,4.20
2019-04-20T14:59:55.923Z,4.20
2019-04-20T15:02:02.810Z,3.97
2019-04-20T15:04:13.278Z,4.60
2019-04-20T15:06:13.647Z,4.07
2019-04-20T15:08:20.595Z,4.13
2019-04-20T15:10:24.826Z,3.73
2019-04-20T15:12:38.882Z,4.17
2019-04-20T15:14:34.690Z,4.27
2019-04-20T15:16:38.547Z,4.70
2019-04-20T15:18:51.713Z,4.00
2019-04-20T15:20:57.404Z,3.60
2019-04-20T15:23:03.509Z,3.80
2019-04-20T15:25:09.481Z,4.43
2019-04-20T15:27:14.388Z,4.60
2019-04-20T15:29:18.334Z,4.43
2019-04-20T15:31:23.843Z,4.43
2019-04-20T15:33:28.289Z,4.47
2019-04-20T15:35:35.018Z,4.10
2019-04-20T15:37:39.615Z,4.13
2019-04-20T15:39:43.262Z,4.37
2019-04-20T15:41:47.330Z,4.40
2019-04-20T15:43:51.273Z,4.43
2019-04-20T15:45:55.264Z,5.47
2019-04-20T15:47:59.517Z,4.50
2019-04-20T15:50:05.313Z,4.17
2019-04-20T15:52:12.518Z,4.50
2019-04-20T15:54:15.679Z,4.47
2019-04-20T15:56:20.704Z,4.43
2019-04-20T15:58:24.266Z,3.93
2019-04-20T16:00:28.651Z,4.10
2019-04-20T16:02:41.208Z,4.77
2019-04-20T16:04:56.470Z,4.30
2019-04-20T16:07:01.157Z,4.20
2019-04-20T16:09:08.341Z,4.40
2019-04-20T16:11:13.326Z,4.77
2019-04-20T16:13:24.232Z,4.50
2019-04-20T16:15:22.553Z,4.63
2019-04-20T16:17:32.702Z,4.20
2019-04-20T16:19:40.509Z,4.43
2019-04-20T16:21:39.714Z,4.60
2019-04-20T16:23:46.240Z,5.33
2019-04-20T16:25:55.406Z,4.57
2019-04-20T16:27:59.466Z,4.40
2019-04-20T16:30:05.557Z,4.03
2019-04-20T16:32:09.561Z,4.50
2019-04-20T16:34:13.742Z,4.60
2019-04-20T16:36:18.656Z,4.07
2019-04-20T16:38:22.778Z,5.40
2019-04-20T16:40:27.336Z,5.10
2019-04-20T16:42:32.192Z,4.67
2019-04-20T16:44:36.095Z,4.60
2019-04-20T16:46:40.426Z,4.47
2019-04-20T16:48:44.426Z,4.53
2019-04-20T16:50:48.794Z,4.43
2019-04-20T16:52:52.843Z,4.57
2019-04-20T16:54:57.630Z,4.30
2019-04-20T16:57:02.504Z,4.33
2019-04-20T16:59:11.611Z,3.90
2019-04-20T17:01:14.449Z,4.47
2019-04-20T17:03:19.528Z,4.43
2019-04-20T17:05:23.429Z,3.80
2019-04-20T17:07:29.106Z,4.30
2019-04-20T17:09:33.692Z,3.73
2019-04-20T17:11:37.474Z,4.50
2019-04-20T17:13:49.434Z,4.37
2019-04-20T17:15:49.946Z,4.77
2019-04-20T17:17:55.703Z,4.70
2019-04-20T17:19:59.674Z,4.27
2019-04-20T17:22:05.537Z,4.23
2019-04-20T17:24:09.196Z,3.73
2019-04-20T17:26:14.770Z,3.73
2019-04-20T17:28:33.064Z,4.63
2019-04-20T17:30:55.029Z,4.13
2019-04-20T17:33:08.122Z,4.70
2019-04-20T17:35:24.208Z,4.03
2019-04-20T17:37:18.487Z,4.03
2019-04-20T17:39:33.970Z,4.30
2019-04-20T17:41:49.954Z,4.07
2019-04-20T17:43:50.685Z,4.10
2019-04-20T17:45:48.299Z,3.80
2019-04-20T17:48:02.116Z,4.23
2019-04-20T17:50:12.579Z,4.53
2019-04-20T17:52:17.962Z,4.40
2019-04-20T17:54:08.822Z,4.30
2019-04-20T17:56:13.235Z,3.90
2019-04-20T17:58:23.223Z,4.17
2019-04-20T18:00:29.041Z,3.93
2019-04-20T18:02:57.508Z,3.90
2019-04-20T18:05:09.941Z,4.03
2019-04-20T18:07:02.654Z,4.13
2019-04-20T18:09:06.657Z,3.67
2019-04-20T18:11:07.699Z,3.97
2019-04-20T18:13:12.120Z,3.20
2019-04-20T18:15:31.536Z,3.57
2019-04-20T18:17:32.650Z,3.77
2019-04-20T18:19:30.940Z,4.50
2019-04-20T18:21:39.690Z,3.80
2019-04-20T18:23:44.811Z,3.70
2019-04-20T18:26:12.734Z,4.20
2019-04-20T18:28:09.635Z,3.67
2019-04-20T18:30:16.046Z,4.10
2019-04-20T18:32:07.375Z,3.90
2019-04-20T18:34:16.436Z,3.47
2019-04-20T18:36:23.718Z,3.83
2019-04-20T18:38:24.060Z,4.10
2019-04-20T18:40:35.214Z,4.37
2019-04-20T18:42:38.838Z,4.67
2019-04-20T18:44:58.274Z,4.10
2019-04-20T18:47:09.538Z,4.20
2019-04-20T18:49:12.710Z,4.17
2019-04-20T18:50:55.526Z,3.57
2019-04-20T18:53:00.080Z,4.10
2019-04-20T18:55:07.512Z,3.67
2019-04-20T18:57:14.347Z,3.90
2019-04-20T18:59:16.882Z,4.10
2019-04-20T19:01:27.904Z,4.20
2019-04-20T19:03:33.058Z,3.80
2019-04-20T19:05:31.934Z,3.90
2019-04-20T19:07:40.966Z,3.53
2019-04-20T19:09:42.885Z,4.23
2019-04-20T19:11:55.789Z,4.37
2019-04-20T19:13:56.490Z,4.13
2019-04-20T19:16:15.208Z,3.97
2019-04-20T19:18:45.522Z,3.93
2019-04-20T19:20:34.996Z,4.20
2019-04-20T19:22:40.055Z,4.10
2019-04-20T19:24:45.034Z,3.90
2019-04-20T19:26:54.310Z,4.17
2019-04-20T19:28:57.475Z,4.03
2019-04-20T19:31:12.593Z,4.07
2019-04-20T19:33:26.092Z,3.50
2019-04-20T19:35:26.052Z,4.47
2019-04-20T19:37:26.010Z,4.40
2019-04-20T19:39:39.954Z,3.90
2019-04-20T19:41:39.026Z,3.63
2019-04-20T19:43:49.015Z,3.83
2019-04-20T19:46:25.568Z,3.33
2019-04-20T19:48:04.376Z,3.53
2019-04-20T19:50:23.309Z,3.40
2019-04-20T19:52:27.286Z,3.97
2019-04-20T19:54:26.412Z,4.10
2019-04-20T19:56:22.556Z,3.80
2019-04-20T19:58:26.516Z,3.47
2019-04-20T20:00:21.110Z,3.57
2019-04-20T20:02:25.909Z,3.93
2019-04-20T20:04:33.277Z,3.87
2019-04-20T20:06:43.599Z,3.63
2019-04-20T20:08:42.316Z,3.73
2019-04-20T20:10:46.647Z,4.27
2019-04-20T20:12:56.917Z,4.10
2019-04-20T20:14:57.420Z,3.80
2019-04-20T20:17:25.147Z,4.33
2019-04-20T20:19:16.596Z,3.87
2019-04-20T20:21:23.900Z,4.27
2019-04-20T20:23:18.241Z,4.00
2019-04-20T20:25:24.586Z,3.90
2019-04-20T20:27:36.193Z,4.10
2019-04-20T20:29:38.640Z,3.40
2019-04-20T20:31:53.043Z,3.70
2019-04-20T20:34:00.106Z,4.13
2019-04-20T20:35:58.246Z,4.03
2019-04-20T20:37:57.814Z,3.83
2019-04-20T20:40:10.094Z,3.93
2019-04-20T20:42:20.635Z,3.60
2019-04-20T20:44:26.196Z,3.87
2019-04-20T20:46:27.433Z,3.50
2019-04-20T20:48:34.830Z,3.37
2019-04-20T20:50:49.122Z,4.23
2019-04-20T20:52:53.679Z,4.07
2019-04-20T20:54:50.398Z,3.93
2019-04-20T20:56:55.567Z,3.83
2019-04-20T20:59:00.873Z,3.97
2019-04-20T21:01:06.765Z,4.30
2019-04-20T21:03:06.238Z,3.53
2019-04-20T21:05:09.254Z,4.20
2019-04-20T21:07:13.144Z,4.43
2019-04-20T21:09:16.989Z,3.73
2019-04-20T21:11:26.218Z,3.70
2019-04-20T21:13:33.294Z,4.10
2019-04-20T21:15:33.242Z,4.20
2019-04-20T21:17:48.977Z,4.23
2019-04-20T21:19:57.944Z,3.63
2019-04-20T21:21:55.689Z,4.17
2019-04-20T21:24:03.099Z,4.40
2019-04-20T21:26:17.007Z,4.53
2019-04-20T21:28:15.175Z,4.33
2019-04-20T21:30:31.042Z,4.30
2019-04-20T21:32:26.268Z,4.10
2019-04-20T21:34:31.157Z,4.37
2019-04-20T21:36:35.154Z,4.50
2019-04-20T21:38:41.470Z,4.60
2019-04-20T21:40:47.992Z,4.20
2019-04-20T21:42:58.393Z,5.03
2019-04-20T21:45:05.859Z,4.87
2019-04-20T21:47:01.965Z,4.60
2019-04-20T21:49:23.795Z,4.67
2019-04-20T21:51:26.411Z,5.00
2019-04-20T21:53:23.124Z,4.13
2019-04-20T21:55:23.668Z,4.63
2019-04-20T21:57:32.492Z,4.73
2019-04-20T21:59:40.947Z,4.93
2019-04-20T22:01:41.124Z,4.40
2019-04-20T22:03:44.754Z,4.30
2019-04-20T22:05:48.767Z,5.43
2019-04-20T22:07:52.601Z,5.53
2019-04-20T22:09:56.830Z,5.07
2019-04-20T22:12:02.106Z,5.50
2019-04-20T22:14:14.642Z,5.13
2019-04-20T22:16:14.773Z,5.50
2019-04-20T22:18:23.008Z,6.03
2019-04-20T22:20:33.623Z,6.10
2019-04-20T22:22:45.462Z,5.90
2019-04-20T22:24:53.605Z,5.83
2019-04-20T22:26:53.519Z,6.67
2019-04-20T22:28:45.498Z,5.80
2019-04-20T22:30:50.371Z,6.27
2019-04-20T22:32:56.936Z,6.07
2019-04-20T22:35:06.535Z,5.60
2019-04-20T22:37:09.748Z,6.73
2019-04-20T22:39:31.353Z,6.70
2019-04-20T22:41:28.449Z,6.37
2019-04-20T22:43:36.724Z,6.33
2019-04-20T22:45:39.757Z,6.40
2019-04-20T22:47:43.152Z,6.17
2019-04-20T22:49:59.996Z,6.50
2019-04-20T22:52:00.687Z,6.60
2019-04-20T22:54:18.817Z,6.80
2019-04-20T22:56:24.337Z,6.57
2019-04-20T22:58:23.839Z,6.83
2019-04-20T23:00:28.974Z,7.17
2019-04-20T23:02:23.648Z,6.47
2019-04-20T23:04:26.959Z,6.60
2019-04-20T23:06:35.822Z,7.33
2019-04-20T23:08:36.324Z,6.97
2019-04-20T23:10:45.007Z,7.07
2019-04-20T23:12:50.981Z,6.57
2019-04-20T23:14:52.322Z,7.00
2019-04-20T23:16:57.559Z,6.93
2019-04-20T23:19:02.466Z,6.13
2019-04-20T23:21:10.429Z,7.20
2019-04-20T23:23:16.949Z,6.47
2019-04-20T23:25:17.502Z,6.40
2019-04-20T23:27:26.318Z,6.27
2019-04-20T23:29:31.443Z,6.40
2019-04-20T23:31:32.397Z,6.13
2019-04-20T23:33:36.292Z,6.70
2019-04-20T23:35:44.925Z,6.10
2019-04-20T23:37:46.510Z,5.87
2019-04-20T23:39:52.394Z,6.83
2019-04-20T23:42:01.508Z,6.23
2019-04-20T23:44:12.620Z,6.17
2019-04-20T23:46:22.255Z,5.87
2019-04-20T23:48:30.482Z,6.43
2019-04-20T23:50:46.589Z,6.83
2019-04-20T23:52:53.369Z,6.60
2019-04-20T23:54:49.073Z,6.63
2019-04-20T23:56:47.989Z,5.67
2019-04-20T23:58:55.183Z,7.20
